KOOA/OOA METAR and TAF weather

Enter ICAO airport designator
Station Type Date Time Source
KOOA METAR 2020/09/21 09:55 UTC NOAA

KOOA 210955Z AUTO 15005KT 10SM CLR 09/08 A3028 RMK AO2 T00940075


Station Type Date Time Source
KOOA Decoded METAR 2020/09/21 09:55 UTC NOAA

Oskaloosa, Oskaloosa Municipal Airport, IA, United States (KOOA) 41-13-34N 092-29-37W
Sep 21, 2020 - 05:55 AM EDT / 2020.09.21 0955 UTC
Wind: from the SSE (150 degrees) at 6 MPH (5 KT):0
Visibility: 10 mile(s):0
Sky conditions: clear
Temperature: 48.9 F (9.4 C)
Dew Point: 45.5 F (7.5 C)
Relative Humidity: 87%
Pressure (altimeter): 30.28 in. Hg (1025 hPa)
ob: KOOA 210955Z AUTO 15005KT 10SM CLR 09/08 A3028 RMK AO2 T00940075
cycle: 10

Station Type Date Time Source
KOOA TAF UTC NOAA

Error!

Example: see airport list